Погода Цимлянскна неделю

Ростовская область, Россия

19 - 25 мая
  • 19мая
    Сегодня
    +12°
    +20°
    Небольшая облачность
    ВремяПогодаТемператураВлажностьДавлениеВетер, м/сВероятность осадков
    00:00Пасмурно, сплошная облачность+14°C54 %755 мм2.5 м/с3 %
    03:00Облачно с прояснениями+13°C74 %755 мм2.2 м/с2 %
    06:00Практически безоблачно+12°C81 %755 мм1.9 м/с2 %
    09:00Облачно с прояснениями+15°C73 %756 мм1.4 м/с4 %
    12:00Ясно и безоблачно+19°C53 %756 мм1.9 м/с4 %
    15:00Небольшая облачность+18°C51 %755 мм1.9 м/с11 %
    18:00Облачно с прояснениями+19°C55 %755 мм1.3 м/с35 %
    21:00Практически безоблачно+16°C71 %756 мм0.9 м/с5 %
  • 20мая
    Понедельник
    +13°
    +21°
    Ясно и безоблачно
    ВремяПогодаТемператураВлажностьДавлениеВетер, м/сВероятность осадков
    00:00Ясно и безоблачно+13°C81 %756 мм1.1 м/с2 %
    03:00Облачно с прояснениями+12°C96 %756 мм1.2 м/с2 %
    06:00Практически безоблачно+13°C95 %757 мм1.3 м/с2 %
    09:00Ясно и безоблачно+17°C61 %757 мм1.9 м/с2 %
    12:00Ясно и безоблачно+20°C46 %757 мм2.3 м/с5 %
    15:00Ясно и безоблачно+20°C43 %757 мм2.5 м/с2 %
    18:00Практически безоблачно+20°C44 %757 мм1.5 м/с2 %
    21:00Ясно и безоблачно+19°C57 %757 мм0.9 м/с2 %
  • 21мая
    Вторник
    +14°
    +24°
    Ясно и безоблачно
    ВремяПогодаТемператураВлажностьДавлениеВетер, м/сВероятность осадков
    00:00Ясно и безоблачно+16°C81 %758 мм1.3 м/с2 %
    03:00Небольшая облачность+14°C78 %758 мм1.6 м/с2 %
    06:00Ясно и безоблачно+15°C82 %759 мм1.5 м/с2 %
    09:00Ясно и безоблачно+19°C54 %759 мм2.1 м/с2 %
    12:00Ясно и безоблачно+22°C37 %760 мм2.8 м/с2 %
    15:00Ясно и безоблачно+23°C30 %759 мм2.3 м/с2 %
    18:00Ясно и безоблачно+22°C34 %758 мм1.8 м/с2 %
    21:00Ясно и безоблачно+20°C58 %758 мм1.7 м/с2 %
  • 22мая
    Среда
    +14°
    +25°
    Ясно и безоблачно
    ВремяПогодаТемператураВлажностьДавлениеВетер, м/сВероятность осадков
    00:00Ясно и безоблачно+17°C63 %758 мм2.0 м/с2 %
    03:00Ясно и безоблачно+15°C64 %758 мм2.4 м/с2 %
    06:00Ясно и безоблачно+16°C60 %758 мм1.8 м/с2 %
    09:00Ясно и безоблачно+20°C50 %759 мм2.0 м/с2 %
    12:00Ясно и безоблачно+24°C41 %758 мм3.1 м/с2 %
    15:00Ясно и безоблачно+25°C38 %757 мм3.4 м/с2 %
    18:00Ясно и безоблачно+24°C40 %756 мм2.2 м/с2 %
    21:00Ясно и безоблачно+20°C52 %756 мм1.7 м/с2 %
  • 23мая
    Четверг
    +13°
    +26°
    Ясно и безоблачно
    ВремяПогодаТемператураВлажностьДавлениеВетер, м/сВероятность осадков
    00:00Ясно и безоблачно+17°C58 %756 мм2.5 м/с2 %
    03:00Ясно и безоблачно+15°C64 %756 мм1.7 м/с2 %
    06:00Ясно и безоблачно+16°C67 %757 мм1.7 м/с2 %
    09:00Ясно и безоблачно+20°C51 %757 мм2.4 м/с2 %
    12:00Ясно и безоблачно+24°C39 %756 мм3.1 м/с2 %
    15:00Ясно и безоблачно+25°C38 %755 мм3.0 м/с5 %
    18:00Ясно и безоблачно+24°C34 %755 мм2.2 м/с4 %
    21:00Ясно и безоблачно+21°C57 %756 мм4.3 м/с2 %
Мы используем cookies
Соглашаюсь